createdAt,value
2022-11-17T00:21:39.880Z,11.50
2022-11-17T00:51:42.795Z,13.27
2022-11-17T01:21:47.167Z,12.83
2022-11-17T01:51:50.225Z,15.50
2022-11-17T02:21:54.314Z,12.57
2022-11-17T02:51:57.123Z,14.70
2022-11-17T03:22:01.272Z,14.53
2022-11-17T03:52:04.163Z,15.20
2022-11-17T04:22:07.167Z,11.43
2022-11-17T04:52:10.630Z,14.30
2022-11-17T05:22:13.603Z,14.67
2022-11-17T05:52:17.077Z,13.43
2022-11-17T06:22:20.191Z,11.53
2022-11-17T06:52:23.536Z,12.47
2022-11-17T07:22:26.606Z,10.87
2022-11-17T07:52:30.133Z,10.10
2022-11-17T08:22:33.731Z,10.60
2022-11-17T08:52:37.368Z,8.70
2022-11-17T09:22:40.986Z,9.60
2022-11-17T09:52:44.463Z,11.23
2022-11-17T10:22:48.006Z,8.67
2022-11-17T10:52:51.398Z,13.57
2022-11-17T11:22:55.008Z,8.50
2022-11-17T11:52:58.562Z,8.57
2022-11-17T12:23:02.149Z,8.97
2022-11-17T12:53:05.716Z,11.03
2022-11-17T13:23:09.204Z,10.50
2022-11-17T13:53:12.631Z,9.60
2022-11-17T14:23:16.127Z,8.53
2022-11-17T14:53:19.571Z,10.60
2022-11-17T15:23:23.106Z,11.80
2022-11-17T15:53:27.042Z,11.53
2022-11-17T16:23:30.015Z,9.55
2022-11-17T16:53:33.563Z,11.50
2022-11-17T17:23:37.313Z,11.13
2022-11-17T17:53:40.642Z,10.47
2022-11-17T18:23:43.805Z,14.83
2022-11-17T18:53:47.441Z,14.65
2022-11-17T19:23:52.111Z,14.60
2022-11-17T19:53:55.492Z,16.33
2022-11-17T20:23:58.987Z,14.97
2022-11-17T20:54:02.122Z,16.03
2022-11-17T21:24:05.424Z,20.20
2022-11-17T21:54:08.882Z,15.97
2022-11-17T22:24:12.663Z,19.15
2022-11-17T22:54:15.896Z,21.90
2022-11-17T23:24:19.418Z,20.25
2022-11-17T23:54:23.255Z,25.45
